createdAt,value
2023-01-22T00:01:25.685Z,100133.66
2023-01-22T00:03:55.099Z,100188.31
2023-01-22T00:06:23.969Z,100197.06
2023-01-22T00:08:52.950Z,100182.31
2023-01-22T00:11:21.472Z,100185.00
2023-01-22T00:13:50.295Z,100233.66
2023-01-22T00:16:18.696Z,100241.31
2023-01-22T00:18:46.889Z,100199.59
2023-01-22T00:21:15.679Z,100229.25
2023-01-22T00:23:43.810Z,100226.09
2023-01-22T00:26:15.866Z,100244.31
2023-01-22T00:28:46.043Z,100242.53
2023-01-22T00:31:16.333Z,100225.56
2023-01-22T00:33:46.454Z,100198.59
2023-01-22T00:36:19.239Z,100244.22
2023-01-22T00:38:50.789Z,100223.38
2023-01-22T00:41:20.260Z,100213.03
2023-01-22T00:43:51.138Z,100207.09
2023-01-22T00:46:22.623Z,100123.97
2023-01-22T00:48:51.350Z,100252.03
2023-01-22T00:51:19.880Z,100254.81
2023-01-22T00:53:48.321Z,100257.22
2023-01-22T00:56:17.653Z,100249.28
2023-01-22T00:58:46.322Z,100201.84
2023-01-22T01:01:15.849Z,100252.19
2023-01-22T01:03:44.399Z,100246.78
2023-01-22T01:06:18.403Z,100200.75
2023-01-22T01:08:49.341Z,100221.72
2023-01-22T01:11:24.234Z,100140.25
2023-01-22T01:13:55.598Z,100214.78
2023-01-22T01:16:31.144Z,100209.78
2023-01-22T01:19:05.616Z,100216.78
2023-01-22T01:21:34.343Z,100234.22
2023-01-22T01:24:03.087Z,100274.41
2023-01-22T01:26:37.874Z,100278.81
2023-01-22T01:29:10.283Z,100277.41
2023-01-22T01:31:39.825Z,100284.19
2023-01-22T01:34:10.681Z,100274.00
2023-01-22T01:36:54.539Z,100281.03
2023-01-22T01:39:23.403Z,100283.38
2023-01-22T01:41:51.738Z,100290.78
2023-01-22T01:44:23.866Z,100296.59
2023-01-22T01:47:05.487Z,100291.41
2023-01-22T01:49:51.320Z,100274.41
2023-01-22T01:52:20.906Z,100285.75
2023-01-22T01:54:56.056Z,100275.19
2023-01-22T01:57:30.978Z,100286.31
2023-01-22T02:00:00.865Z,100266.41
2023-01-22T02:02:29.322Z,100192.06
2023-01-22T02:04:57.907Z,100267.63
2023-01-22T02:07:26.028Z,100261.44
2023-01-22T02:09:57.668Z,100271.66
2023-01-22T02:12:25.792Z,100250.47
2023-01-22T02:14:54.869Z,100270.00
2023-01-22T02:17:23.229Z,100124.06
2023-01-22T02:19:52.499Z,100278.44
2023-01-22T02:22:26.494Z,100280.28
2023-01-22T02:24:55.979Z,100223.88
2023-01-22T02:27:24.616Z,100278.59
2023-01-22T02:29:57.033Z,100233.69
2023-01-22T02:32:25.216Z,100270.72
2023-01-22T02:34:56.121Z,100273.41
2023-01-22T02:37:24.443Z,100278.34
2023-01-22T02:39:55.665Z,100260.66
2023-01-22T02:42:24.406Z,100280.00
2023-01-22T02:44:56.143Z,100203.91
2023-01-22T02:47:24.494Z,100239.44
2023-01-22T02:49:52.500Z,100265.91
2023-01-22T02:52:21.009Z,100267.16
2023-01-22T02:54:49.833Z,100271.66
2023-01-22T02:57:20.236Z,100267.53
2023-01-22T02:59:49.597Z,100253.56
2023-01-22T03:02:17.782Z,100277.97
2023-01-22T03:04:46.757Z,100274.31
2023-01-22T03:07:15.632Z,100278.50
2023-01-22T03:09:44.962Z,100289.72
2023-01-22T03:12:13.035Z,100227.38
2023-01-22T03:15:00.839Z,100280.22
2023-01-22T03:17:47.578Z,100290.56
2023-01-22T03:20:34.956Z,100277.25
2023-01-22T03:23:03.210Z,100272.47
2023-01-22T03:25:31.702Z,100284.03
2023-01-22T03:28:08.970Z,100291.28
2023-01-22T03:30:39.484Z,100296.44
2023-01-22T03:33:09.033Z,100283.47
2023-01-22T03:35:37.535Z,100208.53
2023-01-22T03:38:13.847Z,100284.47
2023-01-22T03:40:42.115Z,100267.75
2023-01-22T03:43:10.787Z,100294.53
2023-01-22T03:45:39.222Z,100261.28
2023-01-22T03:48:10.811Z,100280.28
2023-01-22T03:50:41.539Z,100284.31
2023-01-22T03:53:09.656Z,100290.88
2023-01-22T03:55:37.958Z,100243.50
2023-01-22T03:58:06.543Z,100253.09
2023-01-22T04:00:35.878Z,100289.78
2023-01-22T04:03:07.141Z,100295.38
2023-01-22T04:05:39.635Z,100299.94
2023-01-22T04:08:08.309Z,100299.94
2023-01-22T04:10:40.661Z,100299.78
2023-01-22T04:13:09.232Z,100265.81
2023-01-22T04:15:39.963Z,100306.25
2023-01-22T04:18:17.827Z,100249.22
2023-01-22T04:21:04.491Z,100303.00
2023-01-22T04:23:42.190Z,100256.78
2023-01-22T04:26:10.418Z,100305.31
2023-01-22T04:28:38.423Z,100311.97
2023-01-22T04:31:08.899Z,100298.22
2023-01-22T04:33:42.594Z,100314.91
2023-01-22T04:36:15.108Z,100322.47
2023-01-22T04:38:43.492Z,100292.84
2023-01-22T04:41:11.569Z,100327.63
2023-01-22T04:43:39.830Z,100326.03
2023-01-22T04:46:07.866Z,100306.78
2023-01-22T04:48:35.968Z,100278.25
2023-01-22T04:51:04.627Z,100324.63
2023-01-22T04:53:34.315Z,100328.94
2023-01-22T04:56:02.507Z,100287.56
2023-01-22T04:58:31.567Z,100331.88
2023-01-22T05:01:04.081Z,100341.78
2023-01-22T05:03:32.641Z,100329.94
2023-01-22T05:06:05.194Z,100339.31
2023-01-22T05:08:36.277Z,100284.31
2023-01-22T05:11:05.467Z,100304.56
2023-01-22T05:13:48.745Z,100365.97
2023-01-22T05:16:18.958Z,100357.53
2023-01-22T05:18:48.265Z,100364.47
2023-01-22T05:21:17.014Z,100326.53
2023-01-22T05:23:45.265Z,100301.53
2023-01-22T05:26:13.281Z,100369.13
2023-01-22T05:28:46.367Z,100314.97
2023-01-22T05:31:32.964Z,100319.66
2023-01-22T05:34:03.771Z,100347.66
2023-01-22T05:36:32.317Z,100350.50
2023-01-22T05:39:06.367Z,100322.56
2023-01-22T05:41:35.830Z,100352.84
2023-01-22T05:44:05.447Z,100299.81
2023-01-22T05:46:34.227Z,100362.47
2023-01-22T05:49:24.852Z,100316.63
2023-01-22T05:51:59.280Z,100354.28
2023-01-22T05:54:27.656Z,100385.03
2023-01-22T05:56:57.403Z,100309.25
2023-01-22T05:59:26.507Z,100384.09
2023-01-22T06:02:02.811Z,100365.59
2023-01-22T06:04:33.298Z,100381.25
2023-01-22T06:07:04.461Z,100371.00
2023-01-22T06:09:33.659Z,100384.06
2023-01-22T06:12:02.581Z,100396.69
2023-01-22T06:14:31.815Z,100396.84
2023-01-22T06:17:02.210Z,100404.38
2023-01-22T06:19:41.286Z,100362.84
2023-01-22T06:22:09.414Z,100410.53
2023-01-22T06:24:48.086Z,100392.72
2023-01-22T06:27:18.563Z,100289.56
2023-01-22T06:29:54.035Z,100407.09
2023-01-22T06:32:22.441Z,100407.19
2023-01-22T06:34:52.459Z,100416.28
2023-01-22T06:37:23.339Z,100403.22
2023-01-22T06:39:53.740Z,100413.78
2023-01-22T06:42:26.393Z,100419.53
2023-01-22T06:44:55.462Z,100428.94
2023-01-22T06:47:26.325Z,100407.19
2023-01-22T06:49:58.710Z,100400.94
2023-01-22T06:52:27.552Z,100403.44
2023-01-22T06:54:56.352Z,100426.00
2023-01-22T06:57:26.816Z,100445.44
2023-01-22T06:59:55.365Z,100390.91
2023-01-22T07:02:23.614Z,100449.81
2023-01-22T07:04:52.444Z,100410.53
2023-01-22T07:07:20.566Z,100382.25
2023-01-22T07:09:49.161Z,100448.34
2023-01-22T07:12:18.184Z,100414.00
2023-01-22T07:14:46.139Z,100453.47
2023-01-22T07:17:14.455Z,100450.13
2023-01-22T07:19:42.541Z,100445.22
2023-01-22T07:22:10.563Z,100473.38
2023-01-22T07:24:39.005Z,100480.06
2023-01-22T07:27:07.992Z,100477.66
2023-01-22T07:29:36.308Z,100441.81
2023-01-22T07:32:04.500Z,100479.00
2023-01-22T07:34:32.928Z,100440.91
2023-01-22T07:37:02.059Z,100442.31
2023-01-22T07:39:30.546Z,100477.88
2023-01-22T07:42:02.930Z,100486.72
2023-01-22T07:44:32.070Z,100382.56
2023-01-22T07:47:00.820Z,100495.69
2023-01-22T07:49:29.067Z,100491.84
2023-01-22T07:51:57.129Z,100491.34
2023-01-22T07:54:26.256Z,100493.31
2023-01-22T07:56:54.997Z,100482.41
2023-01-22T07:59:23.145Z,100440.53
2023-01-22T08:01:51.312Z,100503.41
2023-01-22T08:04:19.490Z,100501.00
2023-01-22T08:06:47.533Z,100508.03
2023-01-22T08:09:23.555Z,100477.81
2023-01-22T08:11:53.576Z,100471.06
2023-01-22T08:14:24.137Z,100461.38
2023-01-22T08:16:52.459Z,100456.44
2023-01-22T08:19:20.627Z,100485.94
2023-01-22T08:21:48.999Z,100514.56
2023-01-22T08:24:17.360Z,100501.84
2023-01-22T08:26:45.814Z,100515.22
2023-01-22T08:29:14.816Z,100527.28
2023-01-22T08:31:44.325Z,100521.03
2023-01-22T08:34:12.686Z,100513.50
2023-01-22T08:36:41.808Z,100492.22
2023-01-22T08:39:11.096Z,100519.97
2023-01-22T08:41:40.005Z,100537.94
2023-01-22T08:44:12.048Z,100535.00
2023-01-22T08:46:41.402Z,100527.31
2023-01-22T08:49:09.860Z,100539.97
2023-01-22T08:51:37.754Z,100468.91
2023-01-22T08:54:06.676Z,100531.53
2023-01-22T08:56:35.661Z,100542.59
2023-01-22T08:59:06.884Z,100538.84
2023-01-22T09:01:35.491Z,100499.44
2023-01-22T09:04:08.292Z,100539.78
2023-01-22T09:06:38.573Z,100534.78
2023-01-22T09:09:07.650Z,100542.16
2023-01-22T09:11:35.969Z,100536.13
2023-01-22T09:14:04.519Z,100549.78
2023-01-22T09:16:33.687Z,100520.75
2023-01-22T09:19:02.168Z,100526.56
2023-01-22T09:21:30.214Z,100489.41
2023-01-22T09:23:58.272Z,100498.91
2023-01-22T09:26:26.767Z,100517.84
2023-01-22T09:29:00.808Z,100476.84
2023-01-22T09:31:29.029Z,100531.78
2023-01-22T09:33:57.204Z,100548.50
2023-01-22T09:36:25.356Z,100550.09
2023-01-22T09:38:53.842Z,100537.66
2023-01-22T09:41:47.368Z,100529.63
2023-01-22T09:44:42.534Z,100535.16
2023-01-22T09:47:40.646Z,100541.75
2023-01-22T09:50:23.317Z,100516.66
2023-01-22T09:52:59.552Z,100534.00
2023-01-22T09:55:36.809Z,100492.53
2023-01-22T09:58:14.012Z,100538.50
2023-01-22T10:01:05.802Z,100486.47
2023-01-22T10:03:49.829Z,100528.31
2023-01-22T10:06:23.001Z,100532.94
2023-01-22T10:09:19.224Z,100528.66
2023-01-22T10:11:54.151Z,100526.59
2023-01-22T10:14:29.583Z,100492.69
2023-01-22T10:17:01.848Z,100540.16
2023-01-22T10:19:48.477Z,100540.25
2023-01-22T10:22:24.977Z,100543.66
2023-01-22T10:24:58.585Z,100519.00
2023-01-22T10:27:41.813Z,100537.84
2023-01-22T10:30:22.251Z,100497.78
2023-01-22T10:33:05.991Z,100526.81
2023-01-22T10:35:46.886Z,100494.66
2023-01-22T10:38:32.905Z,100533.00
2023-01-22T10:41:04.255Z,100459.81
2023-01-22T10:43:36.204Z,100521.66
2023-01-22T10:46:18.563Z,100487.22
2023-01-22T10:48:59.575Z,100492.47
2023-01-22T10:51:40.192Z,100527.53
2023-01-22T10:54:22.585Z,100534.81
2023-01-22T10:56:53.637Z,100520.09
2023-01-22T10:59:30.060Z,100504.78
2023-01-22T11:02:12.009Z,100511.75
2023-01-22T11:04:40.338Z,100519.84
2023-01-22T11:07:23.365Z,100518.16
2023-01-22T11:10:30.221Z,100517.72
2023-01-22T11:13:10.491Z,100423.78
2023-01-22T11:16:11.250Z,100512.66
2023-01-22T11:18:46.562Z,100450.91
2023-01-22T11:21:24.172Z,100518.31
2023-01-22T11:24:16.294Z,100508.78
2023-01-22T11:27:08.260Z,100455.66
2023-01-22T11:30:27.361Z,100490.78
2023-01-22T11:33:20.244Z,100495.97
2023-01-22T11:36:26.745Z,100491.09
2023-01-22T11:39:27.263Z,100440.66
2023-01-22T11:42:46.340Z,100497.03
2023-01-22T11:45:32.496Z,100498.88
2023-01-22T11:48:40.790Z,100505.72
2023-01-22T11:51:37.492Z,100493.25
2023-01-22T11:54:39.167Z,100491.41
2023-01-22T11:57:29.071Z,100494.47
2023-01-22T12:00:17.205Z,100492.78
2023-01-22T12:03:43.305Z,100492.09
2023-01-22T12:07:17.216Z,100483.25
2023-01-22T12:10:20.976Z,100488.38
2023-01-22T12:12:57.856Z,100477.63
2023-01-22T12:15:55.376Z,100478.41
2023-01-22T12:19:05.405Z,100479.31
2023-01-22T12:22:17.099Z,100443.56
2023-01-22T12:25:11.668Z,100485.19
2023-01-22T12:27:54.662Z,100483.34
2023-01-22T12:30:44.252Z,100445.91
2023-01-22T12:33:20.338Z,100449.00
2023-01-22T12:35:52.665Z,100444.91
2023-01-22T12:38:40.645Z,100501.59
2023-01-22T12:41:51.916Z,100456.69
2023-01-22T12:45:20.380Z,100501.75
2023-01-22T12:48:29.842Z,100503.53
2023-01-22T12:50:59.304Z,100403.50
2023-01-22T12:53:34.944Z,100460.75
2023-01-22T12:56:08.514Z,100499.84
2023-01-22T12:58:43.349Z,100508.41
2023-01-22T13:01:12.076Z,100521.94
2023-01-22T13:03:42.087Z,100509.97
2023-01-22T13:06:32.957Z,100518.88
2023-01-22T13:09:01.609Z,100521.41
2023-01-22T13:11:37.622Z,100527.06
2023-01-22T13:14:21.805Z,100519.19
2023-01-22T13:17:06.255Z,100519.09
2023-01-22T13:19:42.601Z,100513.34
2023-01-22T13:22:21.486Z,100526.84
2023-01-22T13:24:59.227Z,100499.59
2023-01-22T13:27:28.877Z,100523.59
2023-01-22T13:30:20.414Z,100526.69
2023-01-22T13:32:49.522Z,100524.44
2023-01-22T13:35:19.868Z,100515.19
2023-01-22T13:37:52.058Z,100495.88
2023-01-22T13:40:50.719Z,100537.34
2023-01-22T13:43:23.417Z,100530.34
2023-01-22T13:45:54.988Z,100539.97
2023-01-22T13:48:27.189Z,100551.28
2023-01-22T13:51:03.264Z,100537.34
2023-01-22T13:53:54.793Z,100556.00
2023-01-22T13:56:26.936Z,100560.94
2023-01-22T13:59:23.145Z,100559.28
2023-01-22T14:01:52.270Z,100560.38
2023-01-22T14:04:37.923Z,100519.53
2023-01-22T14:07:07.077Z,100545.28
2023-01-22T14:09:39.277Z,100512.06
2023-01-22T14:12:19.794Z,100563.06
2023-01-22T14:14:52.828Z,100556.25
2023-01-22T14:17:34.785Z,100521.34
2023-01-22T14:20:04.521Z,100565.97
2023-01-22T14:22:32.764Z,100560.91
2023-01-22T14:25:01.223Z,100571.03
2023-01-22T14:27:50.032Z,100588.44
2023-01-22T14:30:21.181Z,100571.66
2023-01-22T14:32:49.585Z,100577.56
2023-01-22T14:35:19.950Z,100579.53
2023-01-22T14:37:50.116Z,100576.19
2023-01-22T14:40:19.802Z,100571.22
2023-01-22T14:42:48.850Z,100583.94
2023-01-22T14:45:19.337Z,100547.78
2023-01-22T14:47:56.681Z,100594.28
2023-01-22T14:50:24.868Z,100593.50
2023-01-22T14:52:53.751Z,100583.22
2023-01-22T14:55:22.759Z,100582.59
2023-01-22T14:57:52.813Z,100599.00
2023-01-22T15:00:24.428Z,100598.22
2023-01-22T15:02:57.048Z,100602.69
2023-01-22T15:05:26.916Z,100607.94
2023-01-22T15:07:55.685Z,100612.47
2023-01-22T15:10:23.998Z,100609.84
2023-01-22T15:12:53.743Z,100574.19
2023-01-22T15:15:26.639Z,100620.03
2023-01-22T15:17:57.291Z,100615.75
2023-01-22T15:20:25.980Z,100590.19
2023-01-22T15:22:55.703Z,100634.59
2023-01-22T15:25:23.980Z,100632.16
2023-01-22T15:27:52.357Z,100628.63
2023-01-22T15:30:21.040Z,100633.66
2023-01-22T15:32:49.775Z,100634.66
2023-01-22T15:35:18.170Z,100594.16
2023-01-22T15:37:48.333Z,100642.75
2023-01-22T15:40:16.795Z,100647.59
2023-01-22T15:42:45.315Z,100652.84
2023-01-22T15:45:13.961Z,100648.44
2023-01-22T15:47:42.213Z,100642.59
2023-01-22T15:50:11.557Z,100628.00
2023-01-22T15:52:39.946Z,100653.00
2023-01-22T15:55:08.866Z,100659.66
2023-01-22T15:57:38.556Z,100655.09
2023-01-22T16:00:11.767Z,100662.41
2023-01-22T16:02:45.529Z,100665.69
2023-01-22T16:05:13.724Z,100668.53
2023-01-22T16:07:41.882Z,100676.44
2023-01-22T16:10:11.193Z,100664.25
2023-01-22T16:12:39.380Z,100665.19
2023-01-22T16:15:08.285Z,100674.66
2023-01-22T16:17:36.657Z,100680.19
2023-01-22T16:20:05.679Z,100666.47
2023-01-22T16:22:33.799Z,100673.22
2023-01-22T16:25:02.409Z,100633.09
2023-01-22T16:27:31.438Z,100661.47
2023-01-22T16:30:01.454Z,100680.91
2023-01-22T16:32:30.381Z,100691.88
2023-01-22T16:34:59.115Z,100689.72
2023-01-22T16:37:27.689Z,100685.66
2023-01-22T16:39:56.383Z,100686.31
2023-01-22T16:42:25.146Z,100699.94
2023-01-22T16:44:53.792Z,100694.13
2023-01-22T16:47:22.572Z,100696.44
2023-01-22T16:49:50.972Z,100690.50
2023-01-22T16:52:22.704Z,100693.00
2023-01-22T16:54:52.307Z,100681.22
2023-01-22T16:57:23.797Z,100690.50
2023-01-22T16:59:56.950Z,100687.19
2023-01-22T17:02:26.777Z,100692.41
2023-01-22T17:04:58.858Z,100708.03
2023-01-22T17:07:34.063Z,100698.31
2023-01-22T17:10:03.214Z,100664.47
2023-01-22T17:12:34.377Z,100714.16
2023-01-22T17:15:03.013Z,100724.69
2023-01-22T17:17:31.948Z,100714.41
2023-01-22T17:20:00.232Z,100723.09
2023-01-22T17:22:28.675Z,100722.94
2023-01-22T17:24:57.275Z,100723.09
2023-01-22T17:27:26.110Z,100725.59
2023-01-22T17:29:54.863Z,100695.13
2023-01-22T17:32:26.758Z,100732.56
2023-01-22T17:34:55.173Z,100733.59
2023-01-22T17:37:24.108Z,100730.84
2023-01-22T17:39:53.015Z,100702.81
2023-01-22T17:42:22.219Z,100733.75
2023-01-22T17:44:50.972Z,100724.16
2023-01-22T17:47:19.662Z,100734.66
2023-01-22T17:49:49.100Z,100704.75
2023-01-22T17:52:23.705Z,100731.88
2023-01-22T17:54:53.939Z,100698.06
2023-01-22T17:57:22.678Z,100611.28
2023-01-22T17:59:51.597Z,100756.47
2023-01-22T18:02:19.755Z,100739.19
2023-01-22T18:04:48.222Z,100737.34
2023-01-22T18:07:18.467Z,100764.94
2023-01-22T18:09:47.006Z,100718.84
2023-01-22T18:12:15.172Z,100763.97
2023-01-22T18:14:44.065Z,100764.09
2023-01-22T18:17:12.634Z,100725.09
2023-01-22T18:19:40.829Z,100765.72
2023-01-22T18:22:09.050Z,100771.44
2023-01-22T18:24:37.471Z,100777.50
2023-01-22T18:27:06.797Z,100767.09
2023-01-22T18:29:35.129Z,100784.44
2023-01-22T18:32:03.592Z,100778.31
2023-01-22T18:34:31.730Z,100781.81
2023-01-22T18:36:59.871Z,100765.47
2023-01-22T18:39:28.617Z,100782.81
2023-01-22T18:41:56.842Z,100770.88
2023-01-22T18:44:28.065Z,100797.59
2023-01-22T18:46:59.630Z,100790.53
2023-01-22T18:49:29.560Z,100786.28
2023-01-22T18:52:01.320Z,100767.31
2023-01-22T18:54:30.413Z,100787.25
2023-01-22T18:56:59.110Z,100787.25
2023-01-22T18:59:28.394Z,100786.88
2023-01-22T19:01:59.226Z,100772.75
2023-01-22T19:04:29.745Z,100793.25
2023-01-22T19:07:01.617Z,100757.41
2023-01-22T19:09:32.286Z,100712.31
2023-01-22T19:12:01.186Z,100797.25
2023-01-22T19:14:30.093Z,100803.50
2023-01-22T19:17:00.553Z,100794.41
2023-01-22T19:19:30.036Z,100808.63
2023-01-22T19:21:58.918Z,100787.41
2023-01-22T19:24:28.816Z,100813.94
2023-01-22T19:27:01.765Z,100812.19
2023-01-22T19:29:30.604Z,100816.28
2023-01-22T19:31:59.299Z,100809.75
2023-01-22T19:34:31.359Z,100822.47
2023-01-22T19:37:02.863Z,100814.88
2023-01-22T19:39:33.001Z,100834.91
2023-01-22T19:42:05.360Z,100841.63
2023-01-22T19:44:36.239Z,100831.50
2023-01-22T19:47:04.975Z,100838.06
2023-01-22T19:49:34.078Z,100834.69
2023-01-22T19:52:02.877Z,100765.41
2023-01-22T19:54:31.218Z,100830.16
2023-01-22T19:56:59.777Z,100847.31
2023-01-22T19:59:28.175Z,100842.91
2023-01-22T20:01:57.794Z,100788.28
2023-01-22T20:04:32.951Z,100844.91
2023-01-22T20:07:05.948Z,100830.66
2023-01-22T20:09:38.363Z,100811.25
2023-01-22T20:12:09.163Z,100822.56
2023-01-22T20:14:43.750Z,100847.38
2023-01-22T20:17:15.446Z,100839.56
2023-01-22T20:19:48.560Z,100837.00
2023-01-22T20:22:17.076Z,100839.50
2023-01-22T20:24:45.769Z,100850.66
2023-01-22T20:27:14.249Z,100840.09
2023-01-22T20:29:43.192Z,100842.91
2023-01-22T20:32:11.849Z,100814.13
2023-01-22T20:34:42.179Z,100835.03
2023-01-22T20:37:10.956Z,100820.56
2023-01-22T20:39:39.529Z,100849.59
2023-01-22T20:42:08.163Z,100847.44
2023-01-22T20:44:37.481Z,100802.94
2023-01-22T20:47:06.752Z,100853.44
2023-01-22T20:49:35.368Z,100857.84
2023-01-22T20:52:06.052Z,100858.69
2023-01-22T20:54:36.948Z,100845.66
2023-01-22T20:57:11.657Z,100860.19
2023-01-22T20:59:39.757Z,100824.41
2023-01-22T21:02:11.421Z,100824.72
2023-01-22T21:04:40.979Z,100867.94
2023-01-22T21:07:09.635Z,100869.38
2023-01-22T21:09:41.159Z,100829.19
2023-01-22T21:12:10.982Z,100865.13
2023-01-22T21:14:39.924Z,100851.44
2023-01-22T21:17:08.175Z,100869.47
2023-01-22T21:19:37.841Z,100870.25
2023-01-22T21:22:07.047Z,100838.06
2023-01-22T21:24:35.262Z,100853.44
2023-01-22T21:27:03.797Z,100874.34
2023-01-22T21:29:32.340Z,100872.59
2023-01-22T21:32:00.748Z,100879.78
2023-01-22T21:34:30.570Z,100868.19
2023-01-22T21:36:59.943Z,100874.50
2023-01-22T21:39:30.695Z,100836.13
2023-01-22T21:42:18.647Z,100864.13
2023-01-22T21:45:05.696Z,100867.56
2023-01-22T21:47:34.268Z,100879.59
2023-01-22T21:50:03.202Z,100885.69
2023-01-22T21:52:31.642Z,100874.41
2023-01-22T21:55:00.062Z,100851.19
2023-01-22T21:57:28.345Z,100868.59
2023-01-22T21:59:56.764Z,100873.69
2023-01-22T22:02:25.811Z,100820.66
2023-01-22T22:04:56.635Z,100873.78
2023-01-22T22:07:24.618Z,100873.69
2023-01-22T22:09:52.930Z,100879.06
2023-01-22T22:12:21.530Z,100877.22
2023-01-22T22:14:49.865Z,100870.50
2023-01-22T22:17:18.599Z,100870.66
2023-01-22T22:19:46.983Z,100864.88
2023-01-22T22:22:17.033Z,100874.34
2023-01-22T22:24:45.654Z,100845.19
2023-01-22T22:27:13.871Z,100856.59
2023-01-22T22:29:42.445Z,100890.50
2023-01-22T22:32:10.731Z,100889.56
2023-01-22T22:34:38.946Z,100885.25
2023-01-22T22:37:07.424Z,100887.72
2023-01-22T22:39:36.182Z,100837.53
2023-01-22T22:42:04.666Z,100854.69
2023-01-22T22:44:32.901Z,100881.31
2023-01-22T22:47:01.213Z,100892.97
2023-01-22T22:49:29.370Z,100898.66
2023-01-22T22:51:58.075Z,100910.75
2023-01-22T22:54:26.375Z,100904.78
2023-01-22T22:56:55.561Z,100916.03
2023-01-22T22:59:23.998Z,100921.03
2023-01-22T23:01:52.672Z,100911.47
2023-01-22T23:04:21.791Z,100915.97
2023-01-22T23:06:49.871Z,100921.94
2023-01-22T23:09:20.802Z,100927.19
2023-01-22T23:11:56.157Z,100923.00
2023-01-22T23:14:24.766Z,100871.22
2023-01-22T23:16:53.086Z,100941.16
2023-01-22T23:19:25.994Z,100904.59
2023-01-22T23:21:59.464Z,100899.34
2023-01-22T23:24:28.779Z,100940.34
2023-01-22T23:26:57.157Z,100918.28
2023-01-22T23:29:27.032Z,100942.25
2023-01-22T23:31:58.127Z,100949.75
2023-01-22T23:34:26.161Z,100926.75
2023-01-22T23:36:54.737Z,100955.56
2023-01-22T23:39:23.562Z,100953.78
2023-01-22T23:41:52.130Z,100953.00
2023-01-22T23:44:20.499Z,100956.44
2023-01-22T23:46:48.764Z,100951.03
2023-01-22T23:49:16.967Z,100957.31
2023-01-22T23:51:45.898Z,100953.38
2023-01-22T23:54:13.958Z,100928.53
2023-01-22T23:56:41.949Z,100960.91
2023-01-22T23:59:11.466Z,100926.66
